createdAt,value
2023-01-26T00:00:19.404Z,101821.31
2023-01-26T00:00:41.459Z,101953.84
2023-01-26T00:01:08.933Z,101940.53
2023-01-26T00:01:32.491Z,101852.16
2023-01-26T00:01:55.440Z,101944.97
2023-01-26T00:02:18.279Z,101794.78
2023-01-26T00:02:41.327Z,101888.41
2023-01-26T00:03:03.755Z,101931.81
2023-01-26T00:03:26.549Z,101941.44
2023-01-26T00:03:49.176Z,101941.50
2023-01-26T00:04:11.985Z,101793.97
2023-01-26T00:04:36.195Z,101944.13
2023-01-26T00:04:58.225Z,101938.78
2023-01-26T00:05:20.400Z,101937.94
2023-01-26T00:05:42.936Z,101943.28
2023-01-26T00:06:07.022Z,101937.13
2023-01-26T00:06:29.228Z,101953.88
2023-01-26T00:06:51.322Z,101949.50
2023-01-26T00:07:15.570Z,101953.88
2023-01-26T00:07:42.944Z,101949.47
2023-01-26T00:08:05.370Z,101949.44
2023-01-26T00:08:27.858Z,101944.19
2023-01-26T00:08:51.832Z,101937.16
2023-01-26T00:09:15.052Z,101830.28
2023-01-26T00:09:38.110Z,101842.53
2023-01-26T00:10:00.140Z,101936.25
2023-01-26T00:10:21.928Z,101879.72
2023-01-26T00:10:50.263Z,101927.34
2023-01-26T00:11:18.274Z,101917.63
2023-01-26T00:11:40.374Z,101928.75
2023-01-26T00:12:02.632Z,101929.66
2023-01-26T00:12:24.440Z,101931.38
2023-01-26T00:12:49.104Z,101828.91
2023-01-26T00:13:12.284Z,101928.81
2023-01-26T00:13:34.603Z,101930.66
2023-01-26T00:13:58.978Z,101926.19
2023-01-26T00:14:22.343Z,101881.13
2023-01-26T00:14:50.852Z,101941.13
2023-01-26T00:15:12.975Z,101847.44
2023-01-26T00:15:36.138Z,101880.78
2023-01-26T00:15:58.339Z,101929.28
2023-01-26T00:16:22.218Z,101944.19
2023-01-26T00:16:44.231Z,101946.81
2023-01-26T00:17:05.987Z,101936.34
2023-01-26T00:17:29.471Z,101933.69
2023-01-26T00:17:54.046Z,101920.56
2023-01-26T00:18:16.895Z,101950.41
2023-01-26T00:18:42.039Z,101794.81
2023-01-26T00:19:04.323Z,101927.63
2023-01-26T00:19:29.285Z,101944.34
2023-01-26T00:19:51.101Z,101800.41
2023-01-26T00:20:15.355Z,101814.34
2023-01-26T00:20:37.255Z,101941.75
2023-01-26T00:21:01.569Z,101935.63
2023-01-26T00:21:24.542Z,101926.84
2023-01-26T00:21:46.572Z,101919.78
2023-01-26T00:22:08.477Z,101878.31
2023-01-26T00:22:33.254Z,101863.22
2023-01-26T00:22:55.711Z,101941.03
2023-01-26T00:23:17.632Z,101772.41
2023-01-26T00:23:40.908Z,101933.25
2023-01-26T00:24:05.351Z,101931.47
2023-01-26T00:24:27.409Z,101936.81
2023-01-26T00:24:49.256Z,101926.16
2023-01-26T00:25:14.560Z,101935.88
2023-01-26T00:25:38.193Z,101793.28
2023-01-26T00:26:00.295Z,101923.31
2023-01-26T00:26:25.707Z,101919.75
2023-01-26T00:26:48.112Z,101859.72
2023-01-26T00:27:11.751Z,101924.25
2023-01-26T00:27:33.905Z,101825.06
2023-01-26T00:27:59.310Z,101926.13
2023-01-26T00:28:21.436Z,101935.63
2023-01-26T00:28:43.316Z,101793.69
2023-01-26T00:29:05.685Z,101832.53
2023-01-26T00:29:28.098Z,101892.50
2023-01-26T00:29:51.279Z,101920.13
2023-01-26T00:30:14.831Z,101917.53
2023-01-26T00:30:37.687Z,101914.88
2023-01-26T00:31:03.256Z,101868.88
2023-01-26T00:31:28.182Z,101917.53
2023-01-26T00:31:52.496Z,101845.22
2023-01-26T00:32:17.528Z,101917.59
2023-01-26T00:32:39.572Z,101926.44
2023-01-26T00:33:03.869Z,101908.81
2023-01-26T00:33:25.765Z,101905.25
2023-01-26T00:33:47.875Z,101830.06
2023-01-26T00:34:09.894Z,101850.53
2023-01-26T00:34:33.139Z,101813.44
2023-01-26T00:34:55.242Z,101886.63
2023-01-26T00:35:18.521Z,101887.56
2023-01-26T00:35:44.734Z,101936.88
2023-01-26T00:36:08.987Z,101851.38
2023-01-26T00:36:30.888Z,101859.38
2023-01-26T00:36:53.962Z,101902.69
2023-01-26T00:37:16.014Z,101871.75
2023-01-26T00:37:42.210Z,101858.53
2023-01-26T00:38:04.895Z,101859.47
2023-01-26T00:38:27.228Z,101887.81
2023-01-26T00:38:49.201Z,101884.13
2023-01-26T00:39:11.292Z,101846.22
2023-01-26T00:39:37.143Z,101853.06
2023-01-26T00:39:59.115Z,101789.41
2023-01-26T00:40:22.489Z,101887.56
2023-01-26T00:40:45.541Z,101903.47
2023-01-26T00:41:30.910Z,101902.63
2023-01-26T00:42:10.082Z,101903.47
2023-01-26T00:42:32.022Z,101904.41
2023-01-26T00:42:54.694Z,101908.66
2023-01-26T00:43:19.963Z,101886.69
2023-01-26T00:43:41.810Z,101898.22
2023-01-26T00:44:03.824Z,101900.84
2023-01-26T00:44:25.599Z,101899.09
2023-01-26T00:44:49.032Z,101896.47
2023-01-26T00:45:11.752Z,101897.38
2023-01-26T00:45:35.405Z,101885.91
2023-01-26T00:46:00.270Z,101902.63
2023-01-26T00:46:24.213Z,101894.78
2023-01-26T00:46:47.813Z,101888.56
2023-01-26T00:47:12.054Z,101900.78
2023-01-26T00:47:35.016Z,101893.00
2023-01-26T00:47:58.730Z,101902.69
2023-01-26T00:48:22.460Z,101873.50
2023-01-26T00:48:45.677Z,101893.84
2023-01-26T00:49:07.658Z,101873.50
2023-01-26T00:49:30.927Z,101900.84
2023-01-26T00:49:54.380Z,101903.56
2023-01-26T00:50:19.355Z,101900.94
2023-01-26T00:50:43.106Z,101895.72
2023-01-26T00:51:07.474Z,101891.34
2023-01-26T00:51:30.532Z,101887.81
2023-01-26T00:51:52.535Z,101891.34
2023-01-26T00:52:17.726Z,101875.38
2023-01-26T00:52:41.067Z,101895.75
2023-01-26T00:53:03.227Z,101890.50
2023-01-26T00:53:25.465Z,101893.13
2023-01-26T00:53:48.892Z,101887.00
2023-01-26T00:54:10.613Z,101900.97
2023-01-26T00:54:35.305Z,101886.03
2023-01-26T00:54:57.297Z,101824.16
2023-01-26T00:55:20.186Z,101893.06
2023-01-26T00:55:41.902Z,101904.44
2023-01-26T00:56:05.169Z,101794.09
2023-01-26T00:56:29.015Z,101887.53
2023-01-26T00:56:50.847Z,101807.22
2023-01-26T00:57:12.939Z,101899.03
2023-01-26T00:57:37.174Z,101866.44
2023-01-26T00:57:59.270Z,101891.19
2023-01-26T00:58:22.811Z,101891.16
2023-01-26T00:58:45.675Z,101799.31
2023-01-26T00:59:09.881Z,101916.69
2023-01-26T00:59:32.628Z,101910.50
2023-01-26T00:59:54.917Z,101755.22
2023-01-26T01:00:21.255Z,101893.81
2023-01-26T01:00:43.375Z,101858.53
2023-01-26T01:01:05.779Z,101891.13
2023-01-26T01:01:27.817Z,101853.19
2023-01-26T01:01:50.402Z,101892.00
2023-01-26T01:02:17.439Z,101896.41
2023-01-26T01:02:40.298Z,101899.06
2023-01-26T01:03:02.627Z,101830.19
2023-01-26T01:03:24.388Z,101896.41
2023-01-26T01:03:47.469Z,101892.94
2023-01-26T01:04:09.307Z,101853.13
2023-01-26T01:04:31.359Z,101902.56
2023-01-26T01:04:56.163Z,101886.78
2023-01-26T01:05:20.820Z,101899.88
2023-01-26T01:05:42.912Z,101900.84
2023-01-26T01:06:07.547Z,101750.63
2023-01-26T01:06:29.358Z,101894.56
2023-01-26T01:06:52.509Z,101895.44
2023-01-26T01:07:14.463Z,101840.75
2023-01-26T01:07:36.514Z,101895.50
2023-01-26T01:07:58.856Z,101748.84
2023-01-26T01:08:20.902Z,101843.38
2023-01-26T01:08:44.274Z,101876.94
2023-01-26T01:09:06.179Z,101878.75
2023-01-26T01:09:28.191Z,101894.59
2023-01-26T01:09:50.585Z,101737.53
2023-01-26T01:10:13.840Z,101750.66
2023-01-26T01:10:35.838Z,101891.13
2023-01-26T01:11:04.543Z,101816.94
2023-01-26T01:11:26.726Z,101889.31
2023-01-26T01:11:49.697Z,101889.44
2023-01-26T01:12:12.122Z,101880.66
2023-01-26T01:12:34.657Z,101793.97
2023-01-26T01:12:56.649Z,101859.38
2023-01-26T01:13:21.783Z,101892.13
2023-01-26T01:13:45.157Z,101779.06
2023-01-26T01:14:08.364Z,101774.53
2023-01-26T01:14:30.303Z,101879.66
2023-01-26T01:14:55.827Z,101812.41
2023-01-26T01:15:20.168Z,101871.66
2023-01-26T01:15:42.002Z,101848.66
2023-01-26T01:16:06.743Z,101891.16
2023-01-26T01:16:29.104Z,101892.06
2023-01-26T01:16:53.486Z,101866.50
2023-01-26T01:17:15.320Z,101756.84
2023-01-26T01:17:38.089Z,101910.47
2023-01-26T01:17:59.914Z,101891.19
2023-01-26T01:18:21.631Z,101893.81
2023-01-26T01:18:45.559Z,101888.56
2023-01-26T01:19:07.787Z,101836.38
2023-01-26T01:19:31.023Z,101885.03
2023-01-26T01:19:54.173Z,101885.03
2023-01-26T01:20:17.375Z,101838.00
2023-01-26T01:20:43.181Z,101761.34
2023-01-26T01:21:07.038Z,101888.53
2023-01-26T01:21:32.092Z,101831.16
2023-01-26T01:21:53.982Z,101862.03
2023-01-26T01:22:15.757Z,101887.69
2023-01-26T01:22:38.279Z,101864.72
2023-01-26T01:23:01.320Z,101818.94
2023-01-26T01:23:23.242Z,101884.19
2023-01-26T01:23:45.116Z,101735.03
2023-01-26T01:24:08.931Z,101886.00
2023-01-26T01:24:30.919Z,101879.84
2023-01-26T01:24:52.659Z,101878.88
2023-01-26T01:25:14.593Z,101881.53
2023-01-26T01:25:37.673Z,101879.75
2023-01-26T01:26:00.314Z,101849.72
2023-01-26T01:26:22.333Z,101878.84
2023-01-26T01:26:44.188Z,101881.50
2023-01-26T01:27:07.230Z,101832.88
2023-01-26T01:27:29.147Z,101881.47
2023-01-26T01:27:51.080Z,101866.50
2023-01-26T01:28:13.242Z,101877.97
2023-01-26T01:28:36.454Z,101851.34
2023-01-26T01:29:00.993Z,101850.50
2023-01-26T01:29:23.243Z,101883.13
2023-01-26T01:29:45.162Z,101840.78
2023-01-26T01:30:08.709Z,101801.97
2023-01-26T01:30:30.616Z,101879.66
2023-01-26T01:30:55.179Z,101799.97
2023-01-26T01:31:18.994Z,101881.41
2023-01-26T01:31:50.392Z,101885.84
2023-01-26T01:32:12.488Z,101881.41
2023-01-26T01:32:35.251Z,101784.25
2023-01-26T01:32:57.315Z,101850.50
2023-01-26T01:33:19.306Z,101880.50
2023-01-26T01:33:42.902Z,101872.56
2023-01-26T01:34:04.862Z,101878.81
2023-01-26T01:34:27.000Z,101869.13
2023-01-26T01:34:49.576Z,101875.41
2023-01-26T01:35:12.021Z,101877.19
2023-01-26T01:35:35.950Z,101791.56
2023-01-26T01:35:58.702Z,101874.44
2023-01-26T01:36:20.807Z,101869.13
2023-01-26T01:36:44.242Z,101745.41
2023-01-26T01:37:06.028Z,101873.50
2023-01-26T01:37:29.627Z,101886.66
2023-01-26T01:37:51.867Z,101850.44
2023-01-26T01:38:13.919Z,101855.09
2023-01-26T01:38:37.911Z,101857.72
2023-01-26T01:38:59.962Z,101848.97
2023-01-26T01:39:22.266Z,101863.94
2023-01-26T01:39:44.149Z,101862.16
2023-01-26T01:40:08.928Z,101754.50
2023-01-26T01:40:31.315Z,101864.75
2023-01-26T01:40:53.645Z,101833.72
2023-01-26T01:41:20.761Z,101810.75
2023-01-26T01:41:46.292Z,101865.25
2023-01-26T01:42:08.703Z,101865.03
2023-01-26T01:42:30.626Z,101862.25
2023-01-26T01:42:53.045Z,101877.94
2023-01-26T01:43:16.594Z,101857.50
2023-01-26T01:43:40.012Z,101861.94
2023-01-26T01:44:19.193Z,101860.94
2023-01-26T01:44:44.930Z,101800.72
2023-01-26T01:45:39.902Z,101838.78
2023-01-26T01:46:03.603Z,101820.13
2023-01-26T01:46:32.299Z,101782.13
2023-01-26T01:46:57.353Z,101805.97
2023-01-26T01:47:27.038Z,101868.75
2023-01-26T01:47:48.920Z,101870.47
2023-01-26T01:48:19.096Z,101820.97
2023-01-26T01:48:49.060Z,101819.34
2023-01-26T01:49:17.841Z,101865.34
2023-01-26T01:49:46.005Z,101872.34
2023-01-26T01:50:17.123Z,101873.31
2023-01-26T01:50:40.298Z,101868.06
2023-01-26T01:51:05.786Z,101870.69
2023-01-26T01:51:34.812Z,101862.78
2023-01-26T01:52:02.061Z,101721.38
2023-01-26T01:52:26.594Z,101867.16
2023-01-26T01:52:50.131Z,101837.13
2023-01-26T01:53:17.771Z,101816.84
2023-01-26T01:53:45.228Z,101861.09
2023-01-26T01:54:13.171Z,101812.31
2023-01-26T01:54:38.465Z,101839.59
2023-01-26T01:55:07.677Z,101838.06
2023-01-26T01:55:29.771Z,101863.69
2023-01-26T01:55:56.685Z,101862.91
2023-01-26T01:56:23.573Z,101859.34
2023-01-26T01:56:51.580Z,101738.34
2023-01-26T01:57:18.432Z,101859.34
2023-01-26T01:57:45.385Z,101856.66
2023-01-26T01:58:08.761Z,101874.44
2023-01-26T01:58:35.412Z,101815.41
2023-01-26T01:59:00.231Z,101836.56
2023-01-26T01:59:25.399Z,101737.75
2023-01-26T01:59:54.517Z,101840.38
2023-01-26T02:00:21.067Z,101848.44
2023-01-26T02:00:44.323Z,101853.50
2023-01-26T02:01:06.579Z,101850.94
2023-01-26T02:01:28.657Z,101843.06
2023-01-26T02:01:53.912Z,101851.13
2023-01-26T02:02:16.260Z,101751.19
2023-01-26T02:02:41.602Z,101819.38
2023-01-26T02:03:15.167Z,101841.59
2023-01-26T02:03:40.092Z,101850.44
2023-01-26T02:04:07.000Z,101788.59
2023-01-26T02:04:31.848Z,101845.16
2023-01-26T02:05:04.352Z,101732.91
2023-01-26T02:05:33.377Z,101850.47
2023-01-26T02:06:00.199Z,101838.94
2023-01-26T02:06:29.611Z,101847.81
2023-01-26T02:06:53.259Z,101845.19
2023-01-26T02:07:20.634Z,101728.59
2023-01-26T02:07:43.208Z,101753.31
2023-01-26T02:08:06.878Z,101791.41
2023-01-26T02:08:33.205Z,101846.97
2023-01-26T02:08:58.091Z,101701.28
2023-01-26T02:09:44.091Z,101848.66
2023-01-26T02:10:20.292Z,101842.47
2023-01-26T02:10:43.762Z,101821.09
2023-01-26T02:11:09.906Z,101844.94
2023-01-26T02:11:39.650Z,101843.16
2023-01-26T02:12:04.821Z,101841.25
2023-01-26T02:12:29.999Z,101834.28
2023-01-26T02:12:55.635Z,101835.97
2023-01-26T02:13:19.224Z,101744.16
2023-01-26T02:13:44.693Z,101824.47
2023-01-26T02:14:10.204Z,101677.91
2023-01-26T02:14:34.518Z,101828.03
2023-01-26T02:14:58.107Z,101832.44
2023-01-26T02:15:23.102Z,101838.53
2023-01-26T02:15:46.298Z,101720.22
2023-01-26T02:16:08.376Z,101684.91
2023-01-26T02:16:31.994Z,101800.56
2023-01-26T02:16:55.626Z,101825.31
2023-01-26T02:17:18.921Z,101826.28
2023-01-26T02:17:42.398Z,101813.03
2023-01-26T02:18:05.465Z,101793.56
2023-01-26T02:18:29.160Z,101824.56
2023-01-26T02:18:53.024Z,101797.09
2023-01-26T02:19:21.857Z,101815.84
2023-01-26T02:19:52.089Z,101818.59
2023-01-26T02:20:22.371Z,101815.13
2023-01-26T02:20:47.776Z,101690.66
2023-01-26T02:21:11.847Z,101830.88
2023-01-26T02:21:35.899Z,101820.41
2023-01-26T02:22:02.722Z,101823.09
2023-01-26T02:22:39.812Z,101816.00
2023-01-26T02:23:11.763Z,101820.34
2023-01-26T02:23:50.817Z,101820.28
2023-01-26T02:24:22.066Z,101824.38
2023-01-26T02:24:44.999Z,101705.78
2023-01-26T02:25:15.337Z,101824.28
2023-01-26T02:25:42.885Z,101738.59
2023-01-26T02:26:09.542Z,101814.69
2023-01-26T02:26:33.820Z,101772.31
2023-01-26T02:26:58.631Z,101818.31
2023-01-26T02:27:24.188Z,101673.56
2023-01-26T02:27:46.421Z,101709.75
2023-01-26T02:28:08.540Z,101813.94
2023-01-26T02:28:31.675Z,101765.47
2023-01-26T02:28:53.937Z,101820.13
2023-01-26T02:29:15.741Z,101821.88
2023-01-26T02:29:39.746Z,101821.06
2023-01-26T02:30:05.182Z,101815.81
2023-01-26T02:30:29.316Z,101817.53
2023-01-26T02:30:52.144Z,101731.00
2023-01-26T02:31:15.206Z,101767.13
2023-01-26T02:31:39.489Z,101802.59
2023-01-26T02:32:02.190Z,101820.28
2023-01-26T02:32:24.363Z,101823.75
2023-01-26T02:32:47.393Z,101821.94
2023-01-26T02:33:16.527Z,101814.84
2023-01-26T02:33:38.670Z,101789.31
2023-01-26T02:34:01.139Z,101812.28
2023-01-26T02:34:29.052Z,101760.97
2023-01-26T02:34:56.228Z,101803.47
2023-01-26T02:35:20.445Z,101817.63
2023-01-26T02:35:42.468Z,101810.63
2023-01-26T02:36:06.902Z,101818.50
2023-01-26T02:36:30.923Z,101815.94
2023-01-26T02:36:58.941Z,101816.88
2023-01-26T02:37:21.686Z,101816.88
2023-01-26T02:37:43.618Z,101813.41
2023-01-26T02:38:09.409Z,101812.53
2023-01-26T02:38:39.425Z,101820.47
2023-01-26T02:39:23.632Z,101804.69
2023-01-26T02:39:52.921Z,101814.41
2023-01-26T02:40:25.984Z,101795.00
2023-01-26T02:40:53.776Z,101807.31
2023-01-26T02:41:39.574Z,101811.69
2023-01-26T02:42:22.399Z,101825.81
2023-01-26T02:42:44.526Z,101805.66
2023-01-26T02:43:07.188Z,101803.00
2023-01-26T02:43:29.099Z,101826.63
2023-01-26T02:43:53.002Z,101756.09
2023-01-26T02:44:16.592Z,101802.19
2023-01-26T02:44:43.076Z,101798.53
2023-01-26T02:45:07.915Z,101800.44
2023-01-26T02:45:31.516Z,101780.03
2023-01-26T02:45:55.432Z,101809.25
2023-01-26T02:46:17.416Z,101804.88
2023-01-26T02:46:39.508Z,101796.16
2023-01-26T02:47:01.448Z,101739.75
2023-01-26T02:47:25.156Z,101702.72
2023-01-26T02:47:48.371Z,101796.22
2023-01-26T02:48:10.212Z,101743.22
2023-01-26T02:48:57.035Z,101697.34
2023-01-26T02:49:37.799Z,101789.16
2023-01-26T02:50:00.784Z,101790.91
2023-01-26T02:50:24.640Z,101799.66
2023-01-26T02:50:46.537Z,101753.88
2023-01-26T02:51:10.333Z,101795.31
2023-01-26T02:51:32.410Z,101796.16
2023-01-26T02:51:55.399Z,101784.78
2023-01-26T02:52:23.050Z,101737.91
2023-01-26T02:52:53.318Z,101675.06
2023-01-26T02:53:19.482Z,101795.09
2023-01-26T02:53:44.171Z,101794.25
2023-01-26T02:54:06.705Z,101796.09
2023-01-26T02:54:46.893Z,101806.63
2023-01-26T02:55:28.956Z,101795.34
2023-01-26T02:55:52.271Z,101800.63
2023-01-26T02:56:14.389Z,101797.13
2023-01-26T02:56:41.251Z,101802.31
2023-01-26T02:57:03.304Z,101789.22
2023-01-26T02:57:27.807Z,101797.03
2023-01-26T02:57:50.536Z,101800.56
2023-01-26T02:58:13.746Z,101798.78
2023-01-26T02:58:36.453Z,101794.31
2023-01-26T02:58:58.500Z,101732.41
2023-01-26T02:59:20.473Z,101722.81
2023-01-26T02:59:42.660Z,101793.41
2023-01-26T03:00:07.751Z,101792.53
2023-01-26T03:00:31.859Z,101789.06
2023-01-26T03:00:53.944Z,101795.19
2023-01-26T03:01:19.022Z,101727.34
2023-01-26T03:01:43.842Z,101793.50
2023-01-26T03:02:05.718Z,101793.56
2023-01-26T03:02:28.008Z,101780.50
2023-01-26T03:02:52.383Z,101790.16
2023-01-26T03:03:16.622Z,101789.28
2023-01-26T03:03:45.565Z,101790.16
2023-01-26T03:04:08.979Z,101771.59
2023-01-26T03:04:31.957Z,101785.72
2023-01-26T03:04:53.800Z,101777.78
2023-01-26T03:05:16.129Z,101782.16
2023-01-26T03:05:41.062Z,101783.91
2023-01-26T03:06:03.163Z,101788.25
2023-01-26T03:06:27.043Z,101790.91
2023-01-26T03:06:49.164Z,101793.50
2023-01-26T03:07:11.404Z,101792.66
2023-01-26T03:07:35.246Z,101772.38
2023-01-26T03:07:57.179Z,101789.00
2023-01-26T03:08:25.417Z,101791.66
2023-01-26T03:08:47.467Z,101759.03
2023-01-26T03:09:09.341Z,101789.00
2023-01-26T03:09:32.384Z,101780.94
2023-01-26T03:09:56.067Z,101652.28
2023-01-26T03:10:18.521Z,101756.34
2023-01-26T03:10:41.977Z,101781.22
2023-01-26T03:11:04.952Z,101711.41
2023-01-26T03:11:42.058Z,101783.91
2023-01-26T03:12:06.106Z,101792.66
2023-01-26T03:12:28.178Z,101642.69
2023-01-26T03:12:53.088Z,101785.66
2023-01-26T03:13:15.100Z,101778.59
2023-01-26T03:13:36.942Z,101783.81
2023-01-26T03:13:58.851Z,101767.97
2023-01-26T03:14:20.758Z,101729.22
2023-01-26T03:14:45.898Z,101776.84
2023-01-26T03:15:27.558Z,101778.56
2023-01-26T03:15:52.745Z,101779.50
2023-01-26T03:16:18.460Z,101636.53
2023-01-26T03:16:40.518Z,101746.69
2023-01-26T03:17:03.503Z,101781.13
2023-01-26T03:17:27.588Z,101682.09
2023-01-26T03:17:51.800Z,101786.34
2023-01-26T03:18:34.247Z,101772.22
2023-01-26T03:19:15.676Z,101764.34
2023-01-26T03:19:56.260Z,101781.09
2023-01-26T03:20:36.618Z,101775.03
2023-01-26T03:21:18.049Z,101773.19
2023-01-26T03:21:59.215Z,101769.78
2023-01-26T03:22:39.562Z,101777.75
2023-01-26T03:23:19.902Z,101776.00
2023-01-26T03:24:01.642Z,101779.50
2023-01-26T03:24:42.205Z,101781.28
2023-01-26T03:25:23.625Z,101781.28
2023-01-26T03:26:06.901Z,101758.31
2023-01-26T03:26:48.496Z,101783.91
2023-01-26T03:27:30.578Z,101785.66
2023-01-26T03:27:57.284Z,101780.38
2023-01-26T03:28:22.387Z,101778.59
2023-01-26T03:28:44.967Z,101778.59
2023-01-26T03:29:06.950Z,101777.72
2023-01-26T03:29:30.204Z,101781.25
2023-01-26T03:29:54.526Z,101776.84
2023-01-26T03:30:18.668Z,101751.25
2023-01-26T03:30:42.368Z,101775.16
2023-01-26T03:31:08.017Z,101776.03
2023-01-26T03:31:30.231Z,101778.75
2023-01-26T03:31:52.330Z,101781.38
2023-01-26T03:32:15.534Z,101776.94
2023-01-26T03:32:40.081Z,101781.41
2023-01-26T03:33:05.443Z,101752.25
2023-01-26T03:33:28.254Z,101781.44
2023-01-26T03:33:50.955Z,101778.81
2023-01-26T03:34:12.999Z,101785.84
2023-01-26T03:34:37.282Z,101761.22
2023-01-26T03:34:59.730Z,101772.63
2023-01-26T03:35:23.131Z,101785.84
2023-01-26T03:35:46.790Z,101785.00
2023-01-26T03:36:09.600Z,101717.13
2023-01-26T03:36:32.675Z,101777.06
2023-01-26T03:36:56.526Z,101761.25
2023-01-26T03:37:22.853Z,101747.19
2023-01-26T03:38:00.512Z,101775.44
2023-01-26T03:38:35.415Z,101773.66
2023-01-26T03:38:58.189Z,101767.53
2023-01-26T03:39:38.828Z,101773.66
2023-01-26T03:40:19.495Z,101775.34
2023-01-26T03:41:00.891Z,101776.16
2023-01-26T03:41:41.298Z,101780.56
2023-01-26T03:42:23.026Z,101732.16
2023-01-26T03:43:04.931Z,101773.63
2023-01-26T03:43:48.544Z,101777.16
2023-01-26T03:44:29.421Z,101774.59
2023-01-26T03:45:11.457Z,101775.53
2023-01-26T03:45:55.070Z,101769.34
2023-01-26T03:46:38.115Z,101770.28
2023-01-26T03:47:21.108Z,101771.16
2023-01-26T03:48:02.083Z,101779.84
2023-01-26T03:48:45.732Z,101777.22
2023-01-26T03:49:26.339Z,101770.13
2023-01-26T03:50:08.599Z,101775.38
2023-01-26T03:50:49.288Z,101773.69
2023-01-26T03:51:30.506Z,101771.09
2023-01-26T03:52:11.804Z,101768.47
2023-01-26T03:52:52.281Z,101778.09
2023-01-26T03:53:34.568Z,101771.94
2023-01-26T03:54:14.867Z,101777.22
2023-01-26T03:54:55.269Z,101770.22
2023-01-26T03:55:35.685Z,101774.66
2023-01-26T03:56:16.081Z,101759.69
2023-01-26T03:56:39.245Z,101765.00
2023-01-26T03:57:07.570Z,101774.59
2023-01-26T03:57:29.874Z,101775.47
2023-01-26T03:57:54.689Z,101775.47
2023-01-26T03:58:17.779Z,101768.47
2023-01-26T03:58:39.608Z,101776.38
2023-01-26T03:59:08.161Z,101761.38
2023-01-26T03:59:39.261Z,101764.06
2023-01-26T04:00:06.178Z,101767.59
2023-01-26T04:00:34.402Z,101632.66
2023-01-26T04:00:56.268Z,101673.16
2023-01-26T04:01:27.857Z,101766.78
2023-01-26T04:02:10.378Z,101768.53
2023-01-26T04:02:50.806Z,101767.66
2023-01-26T04:03:32.254Z,101763.28
2023-01-26T04:04:13.843Z,101771.16
2023-01-26T04:04:54.025Z,101764.13
2023-01-26T04:05:38.442Z,101764.16
2023-01-26T04:06:19.191Z,101759.72
2023-01-26T04:07:04.689Z,101763.19
2023-01-26T04:07:47.628Z,101761.47
2023-01-26T04:08:24.129Z,101764.88
2023-01-26T04:08:51.147Z,101766.53
2023-01-26T04:09:13.237Z,101764.75
2023-01-26T04:09:39.788Z,101646.53
2023-01-26T04:10:01.851Z,101763.81
2023-01-26T04:10:25.584Z,101768.09
2023-01-26T04:10:47.744Z,101731.06
2023-01-26T04:11:09.529Z,101746.94
2023-01-26T04:11:32.770Z,101757.56
2023-01-26T04:11:54.856Z,101759.31
2023-01-26T04:12:16.666Z,101761.06
2023-01-26T04:13:24.939Z,101772.41
2023-01-26T04:14:13.915Z,101693.69
2023-01-26T04:14:56.115Z,101711.44
2023-01-26T04:15:38.589Z,101690.13
2023-01-26T04:16:20.068Z,101729.63
2023-01-26T04:17:00.729Z,101758.72
2023-01-26T04:17:41.043Z,101755.22
2023-01-26T04:18:25.012Z,101760.31
2023-01-26T04:19:05.704Z,101663.06
2023-01-26T04:19:46.733Z,101743.59
2023-01-26T04:20:28.740Z,101749.75
2023-01-26T04:21:09.656Z,101755.06
2023-01-26T04:21:34.373Z,101722.44
2023-01-26T04:22:00.133Z,101756.78
2023-01-26T04:22:22.634Z,101734.78
2023-01-26T04:22:46.128Z,101696.69
2023-01-26T04:23:18.202Z,101738.22
2023-01-26T04:23:40.433Z,101776.00
2023-01-26T04:24:09.453Z,101760.28
2023-01-26T04:24:31.883Z,101748.81
2023-01-26T04:24:54.360Z,101761.06
2023-01-26T04:25:19.242Z,101748.78
2023-01-26T04:25:41.086Z,101660.56
2023-01-26T04:26:04.829Z,101736.47
2023-01-26T04:26:34.745Z,101740.81
2023-01-26T04:26:59.403Z,101751.38
2023-01-26T04:27:26.210Z,101763.69
2023-01-26T04:27:49.137Z,101625.06
2023-01-26T04:28:13.192Z,101682.53
2023-01-26T04:28:37.119Z,101756.72
2023-01-26T04:29:00.466Z,101749.75
2023-01-26T04:29:23.960Z,101683.47
2023-01-26T04:29:48.261Z,101684.56
2023-01-26T04:30:13.065Z,101750.69
2023-01-26T04:30:35.364Z,101716.34
2023-01-26T04:30:57.617Z,101750.84
2023-01-26T04:31:20.960Z,101742.97
2023-01-26T04:31:45.099Z,101746.56
2023-01-26T04:32:09.458Z,101680.25
2023-01-26T04:32:32.898Z,101743.06
2023-01-26T04:32:54.928Z,101752.84
2023-01-26T04:33:16.813Z,101743.19
2023-01-26T04:33:38.974Z,101666.44
2023-01-26T04:34:04.692Z,101756.50
2023-01-26T04:34:26.889Z,101683.97
2023-01-26T04:34:49.045Z,101751.28
2023-01-26T04:35:16.335Z,101749.56
2023-01-26T04:35:39.768Z,101682.44
2023-01-26T04:36:06.417Z,101672.75
2023-01-26T04:36:32.190Z,101756.66
2023-01-26T04:36:56.236Z,101763.66
2023-01-26T04:37:21.147Z,101754.03
2023-01-26T04:37:43.384Z,101745.19
2023-01-26T04:38:05.293Z,101699.34
2023-01-26T04:38:27.334Z,101749.66
2023-01-26T04:38:50.890Z,101738.16
2023-01-26T04:39:15.028Z,101658.75
2023-01-26T04:39:41.140Z,101743.50
2023-01-26T04:40:04.895Z,101749.66
2023-01-26T04:40:28.359Z,101709.91
2023-01-26T04:40:53.615Z,101740.06
2023-01-26T04:41:17.158Z,101741.56
2023-01-26T04:41:43.909Z,101694.09
2023-01-26T04:42:09.026Z,101759.41
2023-01-26T04:42:31.529Z,101697.72
2023-01-26T04:42:57.057Z,101688.97
2023-01-26T04:43:20.446Z,101693.38
2023-01-26T04:43:42.389Z,101752.50
2023-01-26T04:44:04.528Z,101653.69
2023-01-26T04:44:27.228Z,101694.13
2023-01-26T04:44:50.499Z,101759.50
2023-01-26T04:45:12.960Z,101663.44
2023-01-26T04:45:35.241Z,101747.31
2023-01-26T04:45:59.457Z,101733.16
2023-01-26T04:46:21.931Z,101752.56
2023-01-26T04:46:47.254Z,101754.31
2023-01-26T04:47:09.212Z,101756.06
2023-01-26T04:47:31.456Z,101753.44
2023-01-26T04:47:53.250Z,101749.94
2023-01-26T04:48:15.243Z,101644.03
2023-01-26T04:48:38.649Z,101651.97
2023-01-26T04:49:00.791Z,101693.44
2023-01-26T04:49:23.422Z,101756.09
2023-01-26T04:49:46.209Z,101756.06
2023-01-26T04:50:12.487Z,101749.09
2023-01-26T04:50:35.286Z,101757.03
2023-01-26T04:50:58.420Z,101645.88
2023-01-26T04:51:22.004Z,101754.41
2023-01-26T04:51:45.257Z,101750.88
2023-01-26T04:52:08.810Z,101756.22
2023-01-26T04:52:32.200Z,101655.63
2023-01-26T04:52:55.550Z,101609.81
2023-01-26T04:53:19.729Z,101755.38
2023-01-26T04:53:42.134Z,101755.41
2023-01-26T04:54:04.252Z,101651.25
2023-01-26T04:54:27.015Z,101745.66
2023-01-26T04:54:52.059Z,101774.63
2023-01-26T04:55:14.369Z,101676.72
2023-01-26T04:55:38.700Z,101629.19
2023-01-26T04:56:01.450Z,101652.84
2023-01-26T04:56:28.235Z,101757.94
2023-01-26T04:56:50.387Z,101752.69